Time;durP1;ratioP1;P1;durP2;ratioP2;P2;SDS_P1;SDS_P2;PMS_P1;PMS_P2;Temp;Humidity;BMP_temperature;BMP_pressure;BME280_temperature;BME280_humidity;BME280_pressure;Samples;Min_cycle;Max_cycle;Signal;HPM_P1;HPM_P2
2024/01/14 00:04:14;;;;;;;3.80;3.40;;;;;;;1.25;92.40;148982.41;10626940;27;20088;-77
2024/01/14 00:09:17;;;;;;;5.22;3.50;;;;;;;1.40;91.38;149019.56;10628143;27;20130;-77
2024/01/14 00:14:19;;;;;;;4.45;3.78;;;;;;;1.39;91.76;149018.28;10628120;27;20092;-77
2024/01/14 00:19:20;;;;;;;4.43;3.80;;;;;;;1.32;91.97;149000.34;10628061;27;20122;-77
2024/01/14 00:24:22;;;;;;;4.25;3.13;;;;;;;1.30;92.62;148993.94;10627597;27;20394;-76
2024/01/14 00:29:24;;;;;;;3.28;2.63;;;;;;;1.39;91.83;149018.28;10628745;27;20518;-77
2024/01/14 00:34:26;;;;;;;3.28;2.88;;;;;;;1.46;91.59;149036.25;10627379;27;20103;-77
2024/01/14 00:39:28;;;;;;;3.50;3.17;;;;;;;1.39;91.50;149018.28;10628211;27;20035;-78
2024/01/14 00:44:30;;;;;;;4.30;3.67;;;;;;;1.45;90.90;149032.38;10644819;27;20040;-75
2024/01/14 00:49:32;;;;;;;3.53;3.10;;;;;;;1.47;90.94;149037.53;10626226;27;20066;-76
2024/01/14 00:54:34;;;;;;;3.85;3.45;;;;;;;1.51;90.38;149049.06;10628029;27;20127;-77
2024/01/14 00:59:36;;;;;;;3.15;2.85;;;;;;;1.48;90.61;149040.09;10627628;27;20573;-75
2024/01/14 01:04:38;;;;;;;3.95;3.00;;;;;;;1.50;90.55;149045.19;10627554;27;20058;-78
2024/01/14 01:09:40;;;;;;;3.38;3.08;;;;;;;1.56;90.50;149060.59;10628615;27;20054;-77
2024/01/14 01:14:42;;;;;;;3.55;3.13;;;;;;;1.42;91.31;149024.72;10627452;27;20406;-77
2024/01/14 01:19:43;;;;;;;3.58;2.78;;;;;;;1.56;90.75;149060.59;10626445;27;20047;-75
2024/01/14 01:24:45;;;;;;;3.80;3.10;;;;;;;1.50;90.71;149045.19;10629763;27;20039;-76
2024/01/14 01:29:47;;;;;;;3.05;2.50;;;;;;;1.45;91.27;149032.38;10627650;27;20126;-77
2024/01/14 01:34:49;;;;;;;3.15;2.85;;;;;;;1.55;90.92;149058.03;10629325;27;20562;-76
2024/01/14 01:39:51;;;;;;;3.33;2.75;;;;;;;1.39;91.38;149018.28;10631165;27;20046;-76
2024/01/14 01:44:53;;;;;;;3.42;2.90;;;;;;;1.57;89.96;149063.16;10653197;27;20043;-77
2024/01/14 01:49:55;;;;;;;3.28;2.78;;;;;;;1.51;90.22;149049.06;10652400;27;20088;-77
2024/01/14 01:54:58;;;;;;;3.08;2.60;;;;;;;1.59;89.86;149066.97;10636123;27;20031;-78
2024/01/14 02:00:01;;;;;;;4.00;3.60;;;;;;;1.42;90.91;149026.00;10634361;27;20555;-76
2024/01/14 02:05:12;;;;;;;3.38;3.03;;;;;;;1.52;89.75;149051.63;10648164;27;20092;-76
2024/01/14 02:10:15;;;;;;;2.80;2.58;;;;;;;1.57;89.24;149063.16;10633225;27;20490;-76
2024/01/14 02:15:17;;;;;;;3.45;3.05;;;;;;;1.43;90.28;149027.28;10634136;27;20054;-76
2024/01/14 02:20:19;;;;;;;3.40;2.78;;;;;;;1.52;89.48;149051.63;10648215;27;20073;-76
2024/01/14 02:25:20;;;;;;;3.40;2.90;;;;;;;1.52;89.52;149051.63;10632500;27;20051;-77
2024/01/14 02:30:23;;;;;;;3.47;2.70;;;;;;;1.57;89.86;149061.88;10631732;27;20043;-77
2024/01/14 02:35:25;;;;;;;3.97;2.92;;;;;;;1.46;90.20;149036.25;10632712;27;20034;-77
2024/01/14 02:40:27;;;;;;;2.65;2.30;;;;;;;1.39;90.69;149017.03;10633023;27;20043;-76
2024/01/14 02:45:32;;;;;;;3.60;2.92;;;;;;;1.48;90.72;149040.09;10632099;27;20075;-78
2024/01/14 02:50:34;;;;;;;3.22;2.92;;;;;;;1.50;90.65;149046.47;10648851;27;20129;-78
2024/01/14 02:55:36;;;;;;;4.20;3.13;;;;;;;1.46;90.76;149036.25;10633239;27;20128;-76
2024/01/14 03:00:38;;;;;;;3.92;2.83;;;;;;;1.50;91.86;149045.19;10632433;27;20170;-76
2024/01/14 03:05:40;;;;;;;4.28;3.72;;;;;;;1.33;95.33;149001.59;10633900;27;20060;-78
2024/01/14 03:10:41;;;;;;;3.45;3.15;;;;;;;1.12;98.88;148949.09;10633194;27;20487;-77
2024/01/14 03:15:43;;;;;;;4.25;3.83;;;;;;;1.18;97.80;148964.47;10648776;27;20039;-76
2024/01/14 03:20:45;;;;;;;4.68;3.58;;;;;;;1.11;99.40;148946.56;10632599;27;20079;-77
2024/01/14 03:25:47;;;;;;;4.32;3.88;;;;;;;1.02;100.00;148924.75;10631214;27;20039;-77
2024/01/14 03:30:49;;;;;;;4.18;3.42;;;;;;;1.03;99.56;148926.03;10632419;27;20101;-77
2024/01/14 03:35:51;;;;;;;3.33;3.03;;;;;;;1.16;97.49;148959.34;10631051;27;20038;-77
2024/01/14 03:40:52;;;;;;;3.97;3.13;;;;;;;1.10;98.92;148943.94;10631372;27;20062;-76
2024/01/14 03:45:54;;;;;;;3.70;3.33;;;;;;;1.13;97.33;148951.66;10630814;27;20046;-76
2024/01/14 03:50:56;;;;;;;4.97;3.60;;;;;;;1.21;96.24;148972.16;10629737;27;20506;-76
2024/01/14 03:55:58;;;;;;;3.90;3.60;;;;;;;1.17;97.45;148961.91;10629970;27;20043;-76
2024/01/14 04:00:59;;;;;;;4.05;3.50;;;;;;;1.14;97.67;148955.47;10629355;27;20035;-76
2024/01/14 04:06:04;;;;;;;4.93;3.83;;;;;;;1.09;98.17;148941.41;10629091;27;20040;-77
2024/01/14 04:11:06;;;;;;;5.00;4.50;;;;;;;1.11;98.82;148947.81;10631168;27;20502;-77
2024/01/14 04:16:08;;;;;;;4.60;3.95;;;;;;;1.09;100.00;148942.66;10630686;27;20139;-77
2024/01/14 04:21:22;;;;;;;4.03;3.22;;;;;;;0.98;100.00;148915.78;10629650;27;20062;-76
2024/01/14 04:26:24;;;;;;;5.05;4.45;;;;;;;0.73;100.00;148851.72;10627648;27;20076;-76
2024/01/14 04:31:26;;;;;;;5.07;4.57;;;;;;;0.69;100.00;148842.75;10629063;27;20046;-74
2024/01/14 04:36:28;;;;;;;5.82;4.60;;;;;;;0.79;100.00;148867.06;10628811;27;20070;-75
2024/01/14 04:41:30;;;;;;;5.00;4.47;;;;;;;0.74;100.00;148854.28;10628531;27;20046;-76
2024/01/14 04:46:32;;;;;;;5.32;4.32;;;;;;;0.70;100.00;148845.28;10630254;27;20122;-76
2024/01/14 04:51:34;;;;;;;5.75;5.15;;;;;;;0.71;100.00;148846.63;10646034;27;20053;-76
2024/01/14 04:56:36;;;;;;;6.35;5.45;;;;;;;0.72;100.00;148850.44;10628389;27;20046;-76
2024/01/14 05:01:38;;;;;;;6.43;5.20;;;;;;;0.80;100.00;148868.34;10629623;27;20437;-75
2024/01/14 05:06:40;;;;;;;6.60;4.82;;;;;;;0.79;100.00;148865.78;10628236;27;20148;-75
2024/01/14 05:11:42;;;;;;;6.85;5.55;;;;;;;0.95;100.00;148908.09;10628802;27;20439;-77
2024/01/14 05:16:44;;;;;;;5.80;5.22;;;;;;;0.92;100.00;148900.38;10636961;27;20070;-77
2024/01/14 05:21:45;;;;;;;5.63;4.55;;;;;;;1.03;100.00;148927.31;10638262;27;20047;-75
2024/01/14 05:26:47;;;;;;;5.68;5.07;;;;;;;0.97;100.00;148911.91;10638270;27;20061;-75
2024/01/14 05:31:49;;;;;;;5.47;4.45;;;;;;;0.80;100.00;148869.66;10638834;27;20039;-76
2024/01/14 05:36:51;;;;;;;6.32;5.35;;;;;;;0.64;100.00;148829.94;10653509;27;20046;-74
2024/01/14 05:41:53;;;;;;;7.38;5.68;;;;;;;0.50;100.00;148795.38;10637967;27;20116;-76
2024/01/14 05:46:54;;;;;;;5.63;5.03;;;;;;;0.46;100.00;148785.13;10638211;27;20043;-75
2024/01/14 05:51:56;;;;;;;6.13;5.28;;;;;;;0.47;100.00;148787.66;10636699;27;20073;-76
2024/01/14 05:56:58;;;;;;;7.60;5.07;;;;;;;0.49;100.00;148791.53;10637066;27;20551;-75
2024/01/14 06:02:00;;;;;;;5.78;5.03;;;;;;;0.56;100.00;148809.44;10653180;27;20051;-76
2024/01/14 06:07:02;;;;;;;6.55;5.30;;;;;;;0.55;100.00;148806.91;10636076;27;20036;-74
2024/01/14 06:12:04;;;;;;;6.30;5.55;;;;;;;0.52;100.00;148797.91;10650947;27;20047;-75
2024/01/14 06:17:06;;;;;;;6.10;5.00;;;;;;;0.62;100.00;148823.53;10635035;27;20036;-76
2024/01/14 06:22:07;;;;;;;4.85;4.25;;;;;;;0.70;100.00;148844.03;10652415;27;20039;-75
2024/01/14 06:27:10;;;;;;;6.03;4.72;;;;;;;0.71;100.00;148847.91;10635803;27;20107;-75
2024/01/14 06:32:11;;;;;;;4.47;3.95;;;;;;;0.73;100.00;148851.72;10637013;27;20035;-75
2024/01/14 06:37:13;;;;;;;5.50;4.43;;;;;;;0.87;100.00;148886.31;10634548;27;20043;-76
2024/01/14 06:42:15;;;;;;;6.63;4.68;;;;;;;0.86;100.00;148883.75;10632536;27;20395;-76
2024/01/14 06:47:17;;;;;;;4.57;3.83;;;;;;;0.84;100.00;148879.94;10632218;27;20043;-75
2024/01/14 06:52:22;;;;;;;5.95;4.68;;;;;;;0.81;100.00;148872.22;10632963;27;20497;-75
2024/01/14 06:57:24;;;;;;;5.35;4.82;;;;;;;0.81;100.00;148870.94;10631102;27;20426;-74
2024/01/14 07:02:26;;;;;;;6.07;4.55;;;;;;;0.85;100.00;148882.47;10633687;27;20051;-76
2024/01/14 07:07:28;;;;;;;7.68;5.50;;;;;;;0.95;100.00;148908.09;10632931;27;20406;-75
2024/01/14 07:12:30;;;;;;;6.35;5.15;;;;;;;0.94;100.00;148905.53;10630623;27;20039;-75
2024/01/14 07:17:32;;;;;;;4.75;3.83;;;;;;;0.88;100.00;148888.84;10631732;27;20101;-76
2024/01/14 07:22:54;;;;;;;4.90;4.15;;;;;;;0.84;100.00;148879.94;10633407;27;20050;-76
2024/01/14 07:28:15;;;;;;;7.18;4.72;;;;;;;0.83;100.00;148876.06;10631611;27;20042;-76
2024/01/14 07:33:17;;;;;;;5.38;4.35;;;;;;;0.82;100.00;148873.50;10633299;27;20414;-75
2024/01/14 07:38:19;;;;;;;5.70;4.60;;;;;;;0.87;100.00;148887.56;10631947;27;20047;-75
2024/01/14 07:43:21;;;;;;;6.20;4.65;;;;;;;0.97;100.00;148913.25;10633759;27;20533;-75
2024/01/14 07:48:26;;;;;;;10.10;5.32;;;;;;;0.98;100.00;148915.78;10634000;27;20047;-75
2024/01/14 07:53:28;;;;;;;5.15;4.10;;;;;;;1.08;100.00;148940.13;10631027;27;20039;-76
2024/01/14 07:58:30;;;;;;;4.38;3.95;;;;;;;1.11;100.00;148946.56;10631855;27;20560;-75
2024/01/14 08:03:32;;;;;;;6.22;4.43;;;;;;;1.04;100.00;148929.88;10648271;27;20043;-76
2024/01/14 08:08:35;;;;;;;5.30;4.28;;;;;;;1.19;100.00;148968.28;10634047;27;20046;-75
2024/01/14 08:13:37;;;;;;;4.28;3.75;;;;;;;1.16;100.00;148960.63;10631374;27;20061;-77
2024/01/14 08:18:38;;;;;;;4.85;4.35;;;;;;;1.30;100.00;148995.22;10633953;27;20039;-76
2024/01/14 08:23:41;;;;;;;7.38;4.43;;;;;;;1.25;100.00;148982.41;10632635;27;20063;-77
2024/01/14 08:28:43;;;;;;;4.63;3.90;;;;;;;1.12;100.00;148950.38;10630703;27;20039;-75
2024/01/14 08:33:46;;;;;;;5.80;3.97;;;;;;;1.19;100.00;148967.00;10633712;27;20051;-76
2024/01/14 08:38:48;;;;;;;6.10;4.50;;;;;;;1.21;100.00;148973.44;10632357;27;20051;-76
2024/01/14 08:43:50;;;;;;;5.63;4.53;;;;;;;1.23;100.00;148978.53;10632404;27;20035;-76
2024/01/14 08:48:52;;;;;;;4.85;3.95;;;;;;;1.21;100.00;148973.44;10632198;27;20047;-73
2024/01/14 08:54:00;;;;;;;5.50;4.25;;;;;;;1.32;100.00;149000.34;10633469;27;20045;-75
2024/01/14 08:59:03;;;;;;;5.85;4.68;;;;;;;1.38;100.00;149015.75;10635208;27;20039;-76
2024/01/14 09:04:05;;;;;;;5.07;4.57;;;;;;;1.32;100.00;148999.06;10630228;27;20035;-76
2024/01/14 09:09:07;;;;;;;5.85;5.00;;;;;;;1.40;100.00;149020.84;10630150;27;20050;-74
2024/01/14 09:14:09;;;;;;;5.15;4.65;;;;;;;1.50;100.00;149046.47;10628822;27;20050;-74
2024/01/14 09:19:12;;;;;;;7.40;4.95;;;;;;;1.46;100.00;149036.25;10630369;27;20043;-76
2024/01/14 09:24:15;;;;;;;5.95;5.18;;;;;;;1.18;100.00;148964.47;10630682;27;20454;-75
2024/01/14 09:29:16;;;;;;;6.55;5.65;;;;;;;1.07;100.00;148936.28;10632633;27;20064;-74
2024/01/14 09:34:18;;;;;;;8.18;7.38;;;;;;;1.15;100.00;148958.06;10631139;27;20039;-75
2024/01/14 09:39:21;;;;;;;6.80;5.68;;;;;;;1.40;100.00;149019.56;10630690;27;20071;-74
2024/01/14 09:44:23;;;;;;;6.28;4.97;;;;;;;1.47;100.00;149037.53;10643808;27;20031;-74
2024/01/14 09:49:25;;;;;;;5.45;4.93;;;;;;;1.55;100.00;149056.72;10631391;27;20047;-75
2024/01/14 09:54:28;;;;;;;6.47;4.45;;;;;;;1.61;100.00;149072.13;10629235;27;20100;-74
2024/01/14 09:59:32;;;;;;;5.13;4.47;;;;;;;1.78;100.00;149115.72;10633375;27;20463;-75
2024/01/14 10:04:34;;;;;;;5.28;4.35;;;;;;;1.90;97.25;149145.19;10636435;27;20489;-73
2024/01/14 10:09:39;;;;;;;5.22;4.32;;;;;;;2.01;95.55;149174.69;10651916;27;20053;-75
2024/01/14 10:14:41;;;;;;;6.15;4.40;;;;;;;1.88;97.68;149141.34;10652291;27;20040;-74
2024/01/14 10:19:51;;;;;;;5.22;4.57;;;;;;;2.00;96.62;149172.13;10653323;27;20046;-74
2024/01/14 10:24:57;;;;;;;4.28;3.70;;;;;;;2.07;93.80;149188.78;10638782;27;20066;-74
2024/01/14 10:29:59;;;;;;;5.80;4.97;;;;;;;2.05;93.33;149182.41;10637232;27;20100;-74
2024/01/14 10:35:09;;;;;;;5.50;4.97;;;;;;;1.98;93.94;149165.72;10637749;27;20035;-73
2024/01/14 10:40:12;;;;;;;6.72;4.55;;;;;;;2.09;94.81;149193.94;10639936;27;20043;-74
2024/01/14 10:45:15;;;;;;;6.00;4.05;;;;;;;1.94;95.24;149155.44;10637160;27;20043;-74
2024/01/14 10:50:18;;;;;;;5.20;4.65;;;;;;;1.98;95.11;149167.00;10632776;27;20047;-73
2024/01/14 10:55:41;;;;;;;5.97;4.65;;;;;;;2.11;94.96;149197.78;10634421;27;20067;-74
2024/01/14 11:00:48;;;;;;;5.15;4.30;;;;;;;2.20;94.03;149222.13;10633933;27;20111;-74
2024/01/14 11:05:51;;;;;;;6.47;5.03;;;;;;;2.08;95.85;149191.41;10635163;27;20034;-75
2024/01/14 11:10:54;;;;;;;4.72;3.83;;;;;;;1.99;97.62;149168.25;10633340;27;20050;-73
2024/01/14 11:16:07;;;;;;;4.97;4.45;;;;;;;1.90;97.66;149145.19;10634763;27;20119;-75
2024/01/14 11:21:34;;;;;;;6.43;4.53;;;;;;;1.96;95.38;149160.59;10633485;27;20494;-74
2024/01/14 11:26:57;;;;;;;5.03;3.83;;;;;;;2.05;94.55;149182.41;10634408;27;20099;-75
2024/01/14 11:32:06;;;;;;;4.38;3.85;;;;;;;2.08;93.63;149191.41;10633024;27;20127;-74
2024/01/14 11:37:08;;;;;;;5.05;4.25;;;;;;;2.03;93.81;149178.53;10631735;27;20505;-74
2024/01/14 11:42:10;;;;;;;4.00;3.10;;;;;;;2.07;93.33;149188.78;10634531;27;20047;-75
2024/01/14 11:47:11;;;;;;;4.13;3.38;;;;;;;2.04;93.70;149181.13;10637090;27;20084;-74
2024/01/14 11:52:13;;;;;;;5.25;4.20;;;;;;;1.99;94.01;149169.59;10635755;27;20114;-76
2024/01/14 11:57:25;;;;;;;5.45;3.85;;;;;;;2.01;93.33;149174.69;10633728;27;20046;-76
2024/01/14 12:02:28;;;;;;;5.20;3.67;;;;;;;2.19;92.09;149219.56;10600635;27;20035;-75
2024/01/14 12:07:30;;;;;;;4.95;4.05;;;;;;;2.06;93.85;149186.22;10631667;27;20503;-75
2024/01/14 12:12:36;;;;;;;3.85;3.05;;;;;;;2.13;92.75;149202.94;10632476;27;20116;-75
2024/01/14 12:17:38;;;;;;;5.50;3.13;;;;;;;2.13;92.92;149204.22;10631460;27;20035;-75
2024/01/14 12:22:40;;;;;;;3.80;3.22;;;;;;;2.06;93.89;149186.22;10631967;27;20046;-75
2024/01/14 12:27:42;;;;;;;4.45;3.22;;;;;;;2.06;94.04;149184.97;10612946;27;20057;-74
2024/01/14 12:32:44;;;;;;;4.20;3.03;;;;;;;2.03;93.16;149179.81;10629300;27;20111;-74
2024/01/14 12:37:47;;;;;;;4.85;3.60;;;;;;;2.17;92.23;149214.47;10628874;27;20043;-75
2024/01/14 12:42:49;;;;;;;3.85;3.20;;;;;;;2.06;93.38;149184.97;10632355;27;20049;-74
2024/01/14 12:48:09;;;;;;;6.72;2.92;;;;;;;2.02;93.25;149177.25;10631400;27;20043;-75
2024/01/14 12:53:13;;;;;;;4.13;3.22;;;;;;;2.00;93.02;149172.13;10630991;27;20051;-74
2024/01/14 12:58:16;;;;;;;4.82;3.95;;;;;;;1.98;92.71;149165.72;10630699;27;20031;-73
2024/01/14 13:03:18;;;;;;;4.35;3.30;;;;;;;2.00;92.28;149170.88;10630296;27;20047;-74
2024/01/14 13:08:20;;;;;;;5.32;4.15;;;;;;;1.92;93.38;149150.34;10631523;27;20043;-76
2024/01/14 13:13:22;;;;;;;4.97;4.07;;;;;;;1.95;92.55;149158.06;10629639;27;20061;-75
2024/01/14 13:18:24;;;;;;;3.85;3.17;;;;;;;1.94;92.57;149155.44;10629024;27;20051;-75
2024/01/14 13:23:26;;;;;;;6.07;3.80;;;;;;;1.96;92.45;149160.59;10628425;27;20050;-75
2024/01/14 13:28:28;;;;;;;4.32;3.30;;;;;;;1.84;94.29;149129.81;10630361;27;20050;-75
2024/01/14 13:33:29;;;;;;;4.57;3.92;;;;;;;1.83;94.41;149128.53;10629491;27;20050;-74
2024/01/14 13:38:31;;;;;;;4.93;4.43;;;;;;;1.89;93.22;149142.63;10637810;27;20092;-74
2024/01/14 13:43:34;;;;;;;5.47;4.10;;;;;;;1.90;93.04;149145.19;10635188;27;20074;-75
2024/01/14 13:48:35;;;;;;;5.85;4.07;;;;;;;1.96;92.02;149161.88;10637753;27;20495;-75
2024/01/14 13:53:37;;;;;;;5.53;4.63;;;;;;;1.86;92.38;149136.25;10637138;27;20561;-74
2024/01/14 13:58:39;;;;;;;4.72;3.83;;;;;;;1.91;91.36;149147.78;10637221;27;20073;-75
2024/01/14 14:03:42;;;;;;;5.70;4.07;;;;;;;1.91;92.06;149147.78;10640551;27;20483;-75
2024/01/14 14:08:44;;;;;;;7.28;5.75;;;;;;;1.98;91.44;149165.72;10638646;27;20383;-74
2024/01/14 14:13:46;;;;;;;9.40;7.85;;;;;;;2.08;89.55;149191.41;10635314;27;20163;-74
2024/01/14 14:18:47;;;;;;;4.97;3.95;;;;;;;2.15;88.86;149208.03;10632778;27;20043;-74
2024/01/14 14:23:50;;;;;;;4.45;4.03;;;;;;;2.17;88.64;149213.16;10634862;27;20046;-74
2024/01/14 14:28:52;;;;;;;5.30;4.53;;;;;;;2.02;89.61;149175.97;10634022;27;20046;-75
2024/01/14 14:33:54;;;;;;;4.10;3.08;;;;;;;2.02;90.21;149175.97;10633861;27;20064;-76
2024/01/14 14:38:56;;;;;;;5.03;3.75;;;;;;;2.01;89.54;149174.69;10633351;27;20096;-75
2024/01/14 14:43:58;;;;;;;7.68;5.40;;;;;;;2.03;89.06;149179.81;10632685;27;20090;-75
2024/01/14 14:49:00;;;;;;;6.78;4.32;;;;;;;2.01;88.26;149174.69;10630896;27;20066;-75
2024/01/14 14:54:02;;;;;;;6.00;4.13;;;;;;;1.95;88.07;149159.31;10633593;27;20096;-74
2024/01/14 14:59:04;;;;;;;5.60;4.45;;;;;;;1.79;88.61;149117.00;10634363;27;20035;-75
2024/01/14 15:04:06;;;;;;;5.70;4.38;;;;;;;1.73;89.58;149102.91;10634045;27;20039;-75
2024/01/14 15:09:09;;;;;;;5.78;4.30;;;;;;;1.64;91.13;149079.78;10632810;27;20031;-75
2024/01/14 15:14:11;;;;;;;6.30;5.40;;;;;;;1.52;92.81;149051.63;10632214;27;20088;-75
2024/01/14 15:19:13;;;;;;;7.70;5.47;;;;;;;1.44;94.35;149031.09;10634297;27;20043;-76
2024/01/14 15:24:16;;;;;;;6.53;5.32;;;;;;;1.44;94.53;149029.81;10634149;27;20069;-75
2024/01/14 15:29:18;;;;;;;8.88;5.85;;;;;;;1.25;95.43;148983.69;10633300;27;20091;-77
2024/01/14 15:34:19;;;;;;;6.70;4.90;;;;;;;1.30;95.19;148993.94;10632261;27;20119;-75
2024/01/14 15:39:22;;;;;;;7.05;5.32;;;;;;;1.27;93.97;148987.53;10634362;27;20448;-75
2024/01/14 15:44:24;;;;;;;9.27;5.20;;;;;;;1.38;92.73;149015.75;10633344;27;20057;-76
2024/01/14 15:49:25;;;;;;;6.72;5.63;;;;;;;1.43;91.70;149028.56;10631861;27;20043;-74
2024/01/14 15:54:27;;;;;;;9.52;5.30;;;;;;;1.43;91.39;149027.28;10648304;27;20077;-74
2024/01/14 15:59:29;;;;;;;5.85;4.57;;;;;;;1.44;90.33;149029.81;10632170;27;20047;-75
2024/01/14 16:04:31;;;;;;;6.88;5.38;;;;;;;1.42;90.07;149026.00;10630868;27;20100;-74
2024/01/14 16:09:33;;;;;;;8.57;4.95;;;;;;;1.41;88.93;149022.13;10631485;27;20467;-75
2024/01/14 16:14:34;;;;;;;5.72;4.15;;;;;;;1.36;88.48;149009.31;10631204;27;20047;-75
2024/01/14 16:19:36;;;;;;;5.65;4.57;;;;;;;1.23;89.23;148978.53;10629316;27;20057;-75
2024/01/14 16:24:38;;;;;;;6.20;4.32;;;;;;;1.21;89.39;148973.44;10631887;27;20058;-75
2024/01/14 16:29:40;;;;;;;5.70;3.97;;;;;;;1.25;88.82;148983.69;10629994;27;20051;-76
2024/01/14 16:34:42;;;;;;;6.70;5.28;;;;;;;1.24;89.27;148979.88;10628606;27;20039;-75
2024/01/14 16:39:44;;;;;;;6.13;4.05;;;;;;;1.24;88.70;148979.88;10630361;27;20049;-75
2024/01/14 16:44:45;;;;;;;6.25;4.22;;;;;;;1.19;89.00;148967.00;10629700;27;20058;-74
2024/01/14 16:49:47;;;;;;;5.60;3.90;;;;;;;1.30;88.40;148993.94;10629386;27;20411;-75
2024/01/14 16:54:49;;;;;;;5.57;3.60;;;;;;;1.31;88.19;148996.50;10630335;27;20039;-75
2024/01/14 16:59:52;;;;;;;6.45;3.53;;;;;;;1.31;88.29;148996.50;10631714;27;20050;-75
2024/01/14 17:04:54;;;;;;;5.43;4.18;;;;;;;1.26;88.42;148984.97;10630788;27;20143;-75
2024/01/14 17:09:55;;;;;;;4.15;3.33;;;;;;;1.30;87.96;148993.94;10630290;27;20126;-74
2024/01/14 17:14:57;;;;;;;5.30;3.55;;;;;;;1.29;86.92;148991.41;10628975;27;20040;-74
2024/01/14 17:19:59;;;;;;;3.88;3.00;;;;;;;1.36;86.32;149010.59;10628117;27;20039;-76
2024/01/14 17:25:01;;;;;;;5.25;2.97;;;;;;;1.36;86.46;149010.59;10629528;28;20036;-74
2024/01/14 17:30:03;;;;;;;4.53;3.30;;;;;;;1.40;86.26;149020.84;10630016;28;20039;-75
2024/01/14 17:35:06;;;;;;;5.25;3.50;;;;;;;1.31;87.08;148997.78;10631525;28;20418;-74
2024/01/14 17:40:08;;;;;;;4.75;3.42;;;;;;;1.34;86.39;149005.47;10627722;27;20058;-75
2024/01/14 17:45:10;;;;;;;5.55;3.13;;;;;;;1.27;86.79;148987.53;10628974;28;20088;-75
2024/01/14 17:50:12;;;;;;;6.78;3.78;;;;;;;1.31;85.73;148997.78;10629763;27;20059;-74
2024/01/14 17:55:14;;;;;;;5.53;3.80;;;;;;;1.30;85.81;148995.22;10628568;27;20039;-75
2024/01/14 18:00:16;;;;;;;3.58;2.88;;;;;;;1.29;85.78;148991.41;10628941;27;20043;-75
2024/01/14 18:05:19;;;;;;;4.55;3.58;;;;;;;1.21;86.73;148972.16;10627878;27;20039;-75
2024/01/14 18:10:21;;;;;;;4.43;3.15;;;;;;;1.16;86.87;148960.63;10626916;27;20043;-75
2024/01/14 18:15:24;;;;;;;5.25;3.90;;;;;;;1.18;86.11;148965.75;10627464;27;20035;-75
2024/01/14 18:20:26;;;;;;;6.03;3.65;;;;;;;1.23;85.88;148977.25;10629843;27;20054;-75
2024/01/14 18:25:28;;;;;;;5.65;3.78;;;;;;;1.20;85.61;148969.63;10635746;27;20096;-76
2024/01/14 18:30:30;;;;;;;4.65;3.40;;;;;;;1.26;84.59;148986.25;10634640;27;20043;-75
2024/01/14 18:35:32;;;;;;;6.28;3.97;;;;;;;1.15;84.82;148958.06;10634458;27;20490;-76
2024/01/14 18:40:34;;;;;;;5.03;3.63;;;;;;;1.31;82.92;148996.50;10633982;27;20042;-76
2024/01/14 18:45:37;;;;;;;6.45;4.13;;;;;;;1.27;82.69;148987.53;10634713;27;20564;-75
2024/01/14 18:50:40;;;;;;;5.65;4.13;;;;;;;1.36;81.38;149009.31;10634350;27;20051;-76
2024/01/14 18:55:42;;;;;;;5.75;4.10;;;;;;;1.27;81.68;148987.53;10634482;27;20050;-75
2024/01/14 19:00:45;;;;;;;8.60;4.28;;;;;;;1.35;80.56;149006.75;10637592;27;20139;-75
2024/01/14 19:05:47;;;;;;;6.47;4.55;;;;;;;1.26;80.76;148984.97;10634608;27;20046;-75
2024/01/14 19:10:49;;;;;;;6.90;3.97;;;;;;;1.35;79.41;149008.03;10635022;27;20047;-75
2024/01/14 19:15:51;;;;;;;6.28;4.78;;;;;;;1.20;81.70;148969.63;10633929;27;20143;-77
2024/01/14 19:20:53;;;;;;;6.53;4.40;;;;;;;1.18;83.00;148964.47;10632775;27;20118;-75
2024/01/14 19:25:55;;;;;;;8.95;4.95;;;;;;;1.19;82.17;148967.00;10634568;27;20043;-75
2024/01/14 19:30:57;;;;;;;7.35;5.30;;;;;;;1.15;81.36;148956.75;10634947;27;20456;-75
2024/01/14 19:36:02;;;;;;;7.45;5.55;;;;;;;1.25;79.34;148982.41;10637796;27;20053;-76
2024/01/14 19:41:07;;;;;;;7.50;4.93;;;;;;;1.12;81.08;148950.38;10636133;27;20066;-75
2024/01/14 19:46:09;;;;;;;7.10;4.25;;;;;;;1.18;80.17;148964.47;10616613;27;20078;-75
2024/01/14 19:51:11;;;;;;;7.22;5.10;;;;;;;1.11;81.05;148946.56;10632565;27;20043;-76
2024/01/14 19:56:20;;;;;;;7.70;5.05;;;;;;;1.19;80.16;148968.28;10632985;27;20050;-74
2024/01/14 20:01:22;;;;;;;8.10;4.55;;;;;;;1.14;81.54;148955.47;10630846;27;20051;-76
2024/01/14 20:06:25;;;;;;;8.40;5.65;;;;;;;1.12;81.16;148950.38;10614835;27;20039;-76
2024/01/14 20:11:27;;;;;;;6.05;4.88;;;;;;;1.11;81.62;148947.81;10631269;27;20134;-75
2024/01/14 20:16:29;;;;;;;6.47;5.30;;;;;;;1.11;81.81;148947.81;10630894;27;20043;-75
2024/01/14 20:21:30;;;;;;;6.72;4.90;;;;;;;1.03;82.08;148926.03;10628878;27;20043;-75
2024/01/14 20:26:33;;;;;;;8.15;4.82;;;;;;;1.15;81.54;148956.75;10630089;27;20110;-75
2024/01/14 20:31:36;;;;;;;6.43;4.88;;;;;;;1.15;81.33;148958.06;10630500;27;20056;-76
2024/01/14 20:36:39;;;;;;;6.95;5.45;;;;;;;1.16;81.34;148960.63;10630210;27;20050;-76
2024/01/14 20:41:41;;;;;;;9.65;5.20;;;;;;;1.16;81.59;148960.63;10629250;27;20043;-75
2024/01/14 20:46:43;;;;;;;7.10;5.72;;;;;;;1.12;81.87;148949.09;10628242;27;20039;-77
2024/01/14 20:51:44;;;;;;;7.55;5.35;;;;;;;1.13;81.72;148952.94;10630621;27;20057;-77
2024/01/14 20:56:46;;;;;;;5.97;4.68;;;;;;;1.07;82.32;148936.28;10629344;27;20047;-75
2024/01/14 21:01:48;;;;;;;7.18;4.35;;;;;;;1.11;81.80;148946.56;10629408;27;20043;-75
2024/01/14 21:06:50;;;;;;;6.70;4.88;;;;;;;1.10;81.95;148945.22;10629210;27;20046;-75
2024/01/14 21:11:52;;;;;;;7.78;5.20;;;;;;;1.07;82.12;148937.56;10629312;27;20482;-76
2024/01/14 21:16:54;;;;;;;5.28;3.85;;;;;;;1.10;81.68;148943.94;10627487;28;20424;-75
2024/01/14 21:21:56;;;;;;;8.25;4.72;;;;;;;1.21;81.29;148972.16;10628804;27;20114;-75
2024/01/14 21:26:58;;;;;;;7.20;4.97;;;;;;;1.15;81.71;148956.75;10628044;27;20039;-75
2024/01/14 21:32:00;;;;;;;6.00;4.55;;;;;;;1.04;82.28;148929.88;10628017;27;20043;-78
2024/01/14 21:37:02;;;;;;;7.22;4.40;;;;;;;1.12;82.35;148950.38;10628235;27;20063;-76
2024/01/14 21:42:04;;;;;;;6.80;5.55;;;;;;;1.05;83.15;148931.16;10628345;27;20043;-75
2024/01/14 21:47:06;;;;;;;5.47;4.18;;;;;;;1.10;82.84;148943.94;10627938;27;20068;-76
2024/01/14 21:52:08;;;;;;;6.15;4.72;;;;;;;1.12;82.35;148950.38;10627194;27;20126;-75
2024/01/14 21:57:11;;;;;;;4.80;3.53;;;;;;;1.16;82.70;148959.34;10633817;27;20059;-75
2024/01/14 22:02:13;;;;;;;7.13;4.70;;;;;;;1.10;83.71;148945.22;10651111;27;20608;-75
2024/01/14 22:07:14;;;;;;;4.40;4.00;;;;;;;1.03;84.32;148927.31;10651120;27;20081;-76
2024/01/14 22:12:16;;;;;;;5.22;4.03;;;;;;;1.22;82.99;148976.00;10635088;27;20420;-76
2024/01/14 22:17:18;;;;;;;6.60;3.92;;;;;;;1.24;83.17;148979.88;10635204;27;20039;-75
2024/01/14 22:22:20;;;;;;;6.47;4.22;;;;;;;1.17;83.09;148961.91;10635776;27;20043;-75
2024/01/14 22:27:21;;;;;;;7.20;4.00;;;;;;;1.24;82.90;148981.16;10637251;27;20043;-75
2024/01/14 22:32:23;;;;;;;5.00;3.55;;;;;;;1.23;83.11;148978.53;10636115;27;20043;-74
2024/01/14 22:37:25;;;;;;;5.00;4.15;;;;;;;1.15;84.08;148958.06;10636050;27;20050;-75
2024/01/14 22:42:27;;;;;;;5.13;3.72;;;;;;;1.18;83.65;148965.75;10634095;27;20035;-74
2024/01/14 22:47:29;;;;;;;6.63;5.00;;;;;;;1.14;84.17;148955.47;10632180;27;20043;-75
2024/01/14 22:52:31;;;;;;;6.43;4.50;;;;;;;1.13;84.54;148951.66;10632403;27;20054;-75
2024/01/14 22:57:32;;;;;;;6.18;4.25;;;;;;;1.07;85.10;148937.56;10632865;27;20114;-75
2024/01/14 23:02:34;;;;;;;4.55;4.07;;;;;;;1.14;84.87;148954.19;10647940;27;20127;-74
2024/01/14 23:07:36;;;;;;;5.40;4.18;;;;;;;1.21;84.17;148972.16;10631964;27;20062;-75
2024/01/14 23:12:38;;;;;;;6.07;4.20;;;;;;;1.19;84.16;148967.00;10631081;27;20070;-75
2024/01/14 23:17:40;;;;;;;5.07;3.45;;;;;;;1.16;84.19;148960.63;10629432;27;20406;-75
2024/01/14 23:22:42;;;;;;;4.30;3.38;;;;;;;1.10;84.67;148943.94;10630281;27;20039;-74
2024/01/14 23:27:43;;;;;;;4.95;3.50;;;;;;;1.27;82.91;148987.53;10630285;27;20059;-75